sensor_id;sensor_type;location;lat;lon;timestamp;pressure;altitude;pressure_sealevel;temperature;humidity
6853;BME280;3465;42.144;24.722;2022-12-18T00:01:59;145118.28;;;8.80;100.00
6853;BME280;3465;42.144;24.722;2022-12-18T00:04:25;145145.84;;;8.91;100.00
6853;BME280;3465;42.144;24.722;2022-12-18T00:06:52;145149.59;;;8.93;100.00
6853;BME280;3465;42.144;24.722;2022-12-18T00:09:18;145163.31;;;8.98;100.00
6853;BME280;3465;42.144;24.722;2022-12-18T00:11:43;145138.28;;;8.88;100.00
6853;BME280;3465;42.144;24.722;2022-12-18T00:14:11;145162.03;;;8.98;100.00
6853;BME280;3465;42.144;24.722;2022-12-18T00:16:36;145112.06;;;8.78;100.00
6853;BME280;3465;42.144;24.722;2022-12-18T00:19:03;145130.78;;;8.85;100.00
6853;BME280;3465;42.144;24.722;2022-12-18T00:21:31;145140.81;;;8.89;100.00
6853;BME280;3465;42.144;24.722;2022-12-18T00:23:58;145120.81;;;8.81;100.00
6853;BME280;3465;42.144;24.722;2022-12-18T00:26:28;145113.31;;;8.78;100.00
6853;BME280;3465;42.144;24.722;2022-12-18T00:28:55;145118.28;;;8.80;100.00
6853;BME280;3465;42.144;24.722;2022-12-18T00:31:24;145118.28;;;8.80;100.00
6853;BME280;3465;42.144;24.722;2022-12-18T00:33:49;145105.81;;;8.75;100.00
6853;BME280;3465;42.144;24.722;2022-12-18T00:36:26;145104.56;;;8.75;100.00
6853;BME280;3465;42.144;24.722;2022-12-18T00:38:54;145073.31;;;8.62;100.00
6853;BME280;3465;42.144;24.722;2022-12-18T00:41:19;145093.31;;;8.70;100.00
6853;BME280;3465;42.144;24.722;2022-12-18T00:44:05;145092.03;;;8.69;100.00
6853;BME280;3465;42.144;24.722;2022-12-18T00:46:31;144993.31;;;8.30;100.00
6853;BME280;3465;42.144;24.722;2022-12-18T00:48:57;145083.28;;;8.66;100.00
6853;BME280;3465;42.144;24.722;2022-12-18T00:51:23;145073.31;;;8.62;100.00
6853;BME280;3465;42.144;24.722;2022-12-18T00:53:49;145108.31;;;8.76;100.00
6853;BME280;3465;42.144;24.722;2022-12-18T00:56:15;145100.81;;;8.73;100.00
6853;BME280;3465;42.144;24.722;2022-12-18T00:58:40;145079.53;;;8.64;100.00
6853;BME280;3465;42.144;24.722;2022-12-18T01:01:06;145115.78;;;8.79;100.00
6853;BME280;3465;42.144;24.722;2022-12-18T01:03:31;145135.81;;;8.87;100.00
6853;BME280;3465;42.144;24.722;2022-12-18T01:05:57;145120.81;;;8.81;100.00
6853;BME280;3465;42.144;24.722;2022-12-18T01:08:23;145133.31;;;8.86;100.00
6853;BME280;3465;42.144;24.722;2022-12-18T01:10:48;145117.06;;;8.80;100.00
6853;BME280;3465;42.144;24.722;2022-12-18T01:13:14;145123.28;;;8.82;100.00
6853;BME280;3465;42.144;24.722;2022-12-18T01:15:39;145113.31;;;8.78;100.00
6853;BME280;3465;42.144;24.722;2022-12-18T01:18:05;145125.81;;;8.83;100.00
6853;BME280;3465;42.144;24.722;2022-12-18T01:20:31;145135.81;;;8.87;100.00
6853;BME280;3465;42.144;24.722;2022-12-18T01:22:56;145132.06;;;8.86;100.00
6853;BME280;3465;42.144;24.722;2022-12-18T01:25:22;145118.28;;;8.80;100.00
6853;BME280;3465;42.144;24.722;2022-12-18T01:27:47;145119.53;;;8.81;100.00
6853;BME280;3465;42.144;24.722;2022-12-18T01:30:12;145109.56;;;8.77;100.00
6853;BME280;3465;42.144;24.722;2022-12-18T01:32:38;145092.03;;;8.69;100.00
6853;BME280;3465;42.144;24.722;2022-12-18T01:35:04;145077.06;;;8.63;100.00
6853;BME280;3465;42.144;24.722;2022-12-18T01:37:30;145083.28;;;8.66;100.00
6853;BME280;3465;42.144;24.722;2022-12-18T01:39:56;145080.81;;;8.65;100.00
6853;BME280;3465;42.144;24.722;2022-12-18T01:42:21;145055.78;;;8.55;100.00
6853;BME280;3465;42.144;24.722;2022-12-18T01:44:55;145087.03;;;8.67;100.00
6853;BME280;3465;42.144;24.722;2022-12-18T01:47:26;145085.81;;;8.67;100.00
6853;BME280;3465;42.144;24.722;2022-12-18T01:49:52;145092.03;;;8.69;100.00
6853;BME280;3465;42.144;24.722;2022-12-18T01:52:20;145082.03;;;8.65;100.00
6853;BME280;3465;42.144;24.722;2022-12-18T01:54:47;145080.81;;;8.65;100.00
6853;BME280;3465;42.144;24.722;2022-12-18T01:57:14;145098.28;;;8.72;100.00
6853;BME280;3465;42.144;24.722;2022-12-18T01:59:41;145093.31;;;8.70;100.00
6853;BME280;3465;42.144;24.722;2022-12-18T02:02:08;145079.53;;;8.64;100.00
6853;BME280;3465;42.144;24.722;2022-12-18T02:04:34;145083.28;;;8.66;100.00
6853;BME280;3465;42.144;24.722;2022-12-18T02:12:58;145078.28;;;8.64;100.00
6853;BME280;3465;42.144;24.722;2022-12-18T02:18:18;145105.81;;;8.75;100.00
6853;BME280;3465;42.144;24.722;2022-12-18T02:20:53;145105.81;;;8.75;100.00
6853;BME280;3465;42.144;24.722;2022-12-18T02:29:13;145149.59;;;8.93;100.00
6853;BME280;3465;42.144;24.722;2022-12-18T02:31:45;145063.28;;;8.58;100.00
6853;BME280;3465;42.144;24.722;2022-12-18T02:34:12;145143.28;;;8.90;100.00
6853;BME280;3465;42.144;24.722;2022-12-18T02:36:40;145159.56;;;8.97;100.00
6853;BME280;3465;42.144;24.722;2022-12-18T02:39:10;145167.06;;;9.00;100.00
6853;BME280;3465;42.144;24.722;2022-12-18T02:41:36;145140.81;;;8.89;100.00
6853;BME280;3465;42.144;24.722;2022-12-18T02:44:11;145165.84;;;8.99;100.00
6853;BME280;3465;42.144;24.722;2022-12-18T02:46:49;145159.56;;;8.97;100.00
6853;BME280;3465;42.144;24.722;2022-12-18T03:00:43;145163.31;;;8.98;100.00
6853;BME280;3465;42.144;24.722;2022-12-18T03:03:18;145159.56;;;8.97;100.00
6853;BME280;3465;42.144;24.722;2022-12-18T03:05:50;145158.28;;;8.96;100.00
6853;BME280;3465;42.144;24.722;2022-12-18T03:08:29;145153.31;;;8.94;100.00
6853;BME280;3465;42.144;24.722;2022-12-18T03:11:03;145120.81;;;8.81;100.00
6853;BME280;3465;42.144;24.722;2022-12-18T03:13:48;145155.81;;;8.95;100.00
6853;BME280;3465;42.144;24.722;2022-12-18T03:16:22;145145.84;;;8.91;100.00
6853;BME280;3465;42.144;24.722;2022-12-18T03:21:21;145120.81;;;8.81;100.00
6853;BME280;3465;42.144;24.722;2022-12-18T03:23:49;145134.53;;;8.87;100.00
6853;BME280;3465;42.144;24.722;2022-12-18T03:26:20;145128.31;;;8.84;100.00
6853;BME280;3465;42.144;24.722;2022-12-18T03:28:52;145139.56;;;8.89;100.00
6853;BME280;3465;42.144;24.722;2022-12-18T03:31:20;145148.31;;;8.92;100.00
6853;BME280;3465;42.144;24.722;2022-12-18T03:33:53;145145.84;;;8.91;100.00
6853;BME280;3465;42.144;24.722;2022-12-18T03:36:19;145144.56;;;8.91;100.00
6853;BME280;3465;42.144;24.722;2022-12-18T03:38:44;145137.06;;;8.88;100.00
6853;BME280;3465;42.144;24.722;2022-12-18T03:41:22;145155.81;;;8.95;100.00
6853;BME280;3465;42.144;24.722;2022-12-18T03:44:03;145135.81;;;8.87;100.00
6853;BME280;3465;42.144;24.722;2022-12-18T03:49:34;145148.31;;;8.92;100.00
6853;BME280;3465;42.144;24.722;2022-12-18T03:52:06;145170.81;;;9.01;100.00
6853;BME280;3465;42.144;24.722;2022-12-18T03:54:35;145182.06;;;9.06;100.00
6853;BME280;3465;42.144;24.722;2022-12-18T03:57:05;145193.34;;;9.10;100.00
6853;BME280;3465;42.144;24.722;2022-12-18T03:59:32;145197.09;;;9.12;100.00
6853;BME280;3465;42.144;24.722;2022-12-18T04:02:00;145185.84;;;9.07;100.00
6853;BME280;3465;42.144;24.722;2022-12-18T04:04:28;145180.84;;;9.05;100.00
6853;BME280;3465;42.144;24.722;2022-12-18T04:06:55;145187.06;;;9.08;100.00
6853;BME280;3465;42.144;24.722;2022-12-18T04:09:22;145189.59;;;9.09;100.00
6853;BME280;3465;42.144;24.722;2022-12-18T04:11:48;145183.31;;;9.06;100.00
6853;BME280;3465;42.144;24.722;2022-12-18T04:14:13;145155.81;;;8.95;100.00
6853;BME280;3465;42.144;24.722;2022-12-18T04:16:39;145160.81;;;8.97;100.00
6853;BME280;3465;42.144;24.722;2022-12-18T04:19:05;145174.56;;;9.03;100.00
6853;BME280;3465;42.144;24.722;2022-12-18T04:21:30;145184.59;;;9.07;100.00
6853;BME280;3465;42.144;24.722;2022-12-18T04:23:55;145193.34;;;9.10;100.00
6853;BME280;3465;42.144;24.722;2022-12-18T04:26:21;145194.56;;;9.11;100.00
6853;BME280;3465;42.144;24.722;2022-12-18T04:28:47;145185.84;;;9.07;100.00
6853;BME280;3465;42.144;24.722;2022-12-18T04:31:12;145203.31;;;9.14;100.00
6853;BME280;3465;42.144;24.722;2022-12-18T04:33:38;145182.06;;;9.06;100.00
6853;BME280;3465;42.144;24.722;2022-12-18T04:36:04;145175.81;;;9.03;100.00
6853;BME280;3465;42.144;24.722;2022-12-18T04:38:30;145189.59;;;9.09;100.00
6853;BME280;3465;42.144;24.722;2022-12-18T04:40:55;145152.06;;;8.94;100.00
6853;BME280;3465;42.144;24.722;2022-12-18T04:43:20;145160.81;;;8.97;100.00
6853;BME280;3465;42.144;24.722;2022-12-18T04:45:46;145145.84;;;8.91;100.00
6853;BME280;3465;42.144;24.722;2022-12-18T04:48:11;145157.06;;;8.96;100.00
6853;BME280;3465;42.144;24.722;2022-12-18T04:50:37;145153.31;;;8.94;100.00
6853;BME280;3465;42.144;24.722;2022-12-18T04:53:02;145147.06;;;8.92;100.00
6853;BME280;3465;42.144;24.722;2022-12-18T04:55:27;145149.59;;;8.93;100.00
6853;BME280;3465;42.144;24.722;2022-12-18T04:57:53;145137.06;;;8.88;100.00
6853;BME280;3465;42.144;24.722;2022-12-18T05:00:19;145123.28;;;8.82;100.00
6853;BME280;3465;42.144;24.722;2022-12-18T05:02:44;145042.00;;;8.49;100.00
6853;BME280;3465;42.144;24.722;2022-12-18T05:05:10;145139.56;;;8.89;100.00
6853;BME280;3465;42.144;24.722;2022-12-18T05:07:35;145137.06;;;8.88;100.00
6853;BME280;3465;42.144;24.722;2022-12-18T05:10:01;145162.03;;;8.98;100.00
6853;BME280;3465;42.144;24.722;2022-12-18T05:12:26;145147.06;;;8.92;100.00
6853;BME280;3465;42.144;24.722;2022-12-18T05:14:51;145167.06;;;9.00;100.00
6853;BME280;3465;42.144;24.722;2022-12-18T05:17:17;145147.06;;;8.92;100.00
6853;BME280;3465;42.144;24.722;2022-12-18T05:19:43;145170.81;;;9.01;100.00
6853;BME280;3465;42.144;24.722;2022-12-18T05:22:09;145160.81;;;8.97;100.00
6853;BME280;3465;42.144;24.722;2022-12-18T05:24:34;145150.78;;;8.93;100.00
6853;BME280;3465;42.144;24.722;2022-12-18T05:27:00;145169.59;;;9.01;100.00
6853;BME280;3465;42.144;24.722;2022-12-18T05:29:25;145152.06;;;8.94;100.00
6853;BME280;3465;42.144;24.722;2022-12-18T05:31:50;145158.28;;;8.96;100.00
6853;BME280;3465;42.144;24.722;2022-12-18T05:34:16;145163.31;;;8.98;100.00
6853;BME280;3465;42.144;24.722;2022-12-18T05:36:42;145188.34;;;9.08;100.00
6853;BME280;3465;42.144;24.722;2022-12-18T05:39:07;145182.06;;;9.06;100.00
6853;BME280;3465;42.144;24.722;2022-12-18T05:41:33;145157.06;;;8.96;100.00
6853;BME280;3465;42.144;24.722;2022-12-18T05:43:59;145193.34;;;9.10;100.00
6853;BME280;3465;42.144;24.722;2022-12-18T05:46:25;145198.31;;;9.12;100.00
6853;BME280;3465;42.144;24.722;2022-12-18T05:48:51;145195.84;;;9.11;100.00
6853;BME280;3465;42.144;24.722;2022-12-18T05:51:21;145200.84;;;9.13;100.00
6853;BME280;3465;42.144;24.722;2022-12-18T05:53:47;145203.31;;;9.14;100.00
6853;BME280;3465;42.144;24.722;2022-12-18T05:56:16;145203.31;;;9.14;100.00
6853;BME280;3465;42.144;24.722;2022-12-18T05:58:42;145194.56;;;9.11;100.00
6853;BME280;3465;42.144;24.722;2022-12-18T06:03:35;145205.84;;;9.15;100.00
6853;BME280;3465;42.144;24.722;2022-12-18T06:06:01;145197.09;;;9.12;100.00
6853;BME280;3465;42.144;24.722;2022-12-18T06:08:27;145204.59;;;9.15;100.00
6853;BME280;3465;42.144;24.722;2022-12-18T06:10:53;145203.31;;;9.14;100.00
6853;BME280;3465;42.144;24.722;2022-12-18T06:13:19;145188.34;;;9.08;100.00
6853;BME280;3465;42.144;24.722;2022-12-18T06:15:45;145195.84;;;9.11;100.00
6853;BME280;3465;42.144;24.722;2022-12-18T06:18:10;145193.34;;;9.10;100.00
6853;BME280;3465;42.144;24.722;2022-12-18T06:20:36;145220.84;;;9.21;100.00
6853;BME280;3465;42.144;24.722;2022-12-18T06:23:02;145238.34;;;9.28;100.00
6853;BME280;3465;42.144;24.722;2022-12-18T06:25:27;145253.38;;;9.34;100.00
6853;BME280;3465;42.144;24.722;2022-12-18T06:27:53;145259.63;;;9.37;100.00
6853;BME280;3465;42.144;24.722;2022-12-18T06:30:18;145249.63;;;9.33;100.00
6853;BME280;3465;42.144;24.722;2022-12-18T06:32:44;145279.63;;;9.45;100.00
6853;BME280;3465;42.144;24.722;2022-12-18T06:35:09;145268.38;;;9.40;100.00
6853;BME280;3465;42.144;24.722;2022-12-18T06:37:35;145280.91;;;9.45;100.00
6853;BME280;3465;42.144;24.722;2022-12-18T06:40:00;145269.66;;;9.41;100.00
6853;BME280;3465;42.144;24.722;2022-12-18T06:42:26;145272.13;;;9.42;100.00
6853;BME280;3465;42.144;24.722;2022-12-18T06:44:52;145282.13;;;9.46;100.00
6853;BME280;3465;42.144;24.722;2022-12-18T06:47:18;145305.94;;;9.55;100.00
6853;BME280;3465;42.144;24.722;2022-12-18T06:49:43;145282.13;;;9.46;100.00
6853;BME280;3465;42.144;24.722;2022-12-18T06:52:08;145253.38;;;9.34;100.00
6853;BME280;3465;42.144;24.722;2022-12-18T06:54:34;145289.66;;;9.49;100.00
6853;BME280;3465;42.144;24.722;2022-12-18T06:56:59;145298.38;;;9.52;100.00
6853;BME280;3465;42.144;24.722;2022-12-18T06:59:25;145248.38;;;9.32;100.00
6853;BME280;3465;42.144;24.722;2022-12-18T07:01:50;145273.41;;;9.42;100.00
6853;BME280;3465;42.144;24.722;2022-12-18T07:04:15;145299.66;;;9.53;100.00
6853;BME280;3465;42.144;24.722;2022-12-18T07:06:41;145299.66;;;9.53;100.00
6853;BME280;3465;42.144;24.722;2022-12-18T07:09:06;145285.91;;;9.47;100.00
6853;BME280;3465;42.144;24.722;2022-12-18T07:11:34;145290.88;;;9.49;100.00
6853;BME280;3465;42.144;24.722;2022-12-18T07:14:00;145278.38;;;9.44;100.00
6853;BME280;3465;42.144;24.722;2022-12-18T07:16:25;145292.16;;;9.50;100.00
6853;BME280;3465;42.144;24.722;2022-12-18T07:18:54;145270.88;;;9.41;100.00
6853;BME280;3465;42.144;24.722;2022-12-18T07:21:20;145285.91;;;9.47;100.00
6853;BME280;3465;42.144;24.722;2022-12-18T07:23:46;145290.88;;;9.49;100.00
6853;BME280;3465;42.144;24.722;2022-12-18T07:26:14;145292.16;;;9.50;100.00
6853;BME280;3465;42.144;24.722;2022-12-18T07:28:40;145293.41;;;9.50;100.00
6853;BME280;3465;42.144;24.722;2022-12-18T07:31:09;145305.94;;;9.55;100.00
6853;BME280;3465;42.144;24.722;2022-12-18T07:33:35;145284.66;;;9.47;100.00
6853;BME280;3465;42.144;24.722;2022-12-18T07:36:02;145270.88;;;9.41;100.00
6853;BME280;3465;42.144;24.722;2022-12-18T07:38:29;145283.38;;;9.46;100.00
6853;BME280;3465;42.144;24.722;2022-12-18T07:40:54;145284.66;;;9.47;100.00
6853;BME280;3465;42.144;24.722;2022-12-18T07:43:20;145285.91;;;9.47;100.00
6853;BME280;3465;42.144;24.722;2022-12-18T07:45:45;145282.13;;;9.46;100.00
6853;BME280;3465;42.144;24.722;2022-12-18T07:48:14;145257.13;;;9.36;100.00
6853;BME280;3465;42.144;24.722;2022-12-18T07:50:39;145293.41;;;9.50;100.00
6853;BME280;3465;42.144;24.722;2022-12-18T07:53:04;145304.66;;;9.55;100.00
6853;BME280;3465;42.144;24.722;2022-12-18T07:55:31;145318.41;;;9.60;100.00
6853;BME280;3465;42.144;24.722;2022-12-18T07:57:59;145284.66;;;9.47;100.00
6853;BME280;3465;42.144;24.722;2022-12-18T08:00:25;145298.38;;;9.52;100.00
6853;BME280;3465;42.144;24.722;2022-12-18T08:02:50;145310.91;;;9.57;100.00
6853;BME280;3465;42.144;24.722;2022-12-18T08:05:16;145319.66;;;9.61;100.00
6853;BME280;3465;42.144;24.722;2022-12-18T08:07:41;145309.69;;;9.57;100.00
6853;BME280;3465;42.144;24.722;2022-12-18T08:10:07;145353.47;;;9.74;100.00
6853;BME280;3465;42.144;24.722;2022-12-18T08:12:33;145338.41;;;9.68;100.00
6853;BME280;3465;42.144;24.722;2022-12-18T08:14:58;145362.19;;;9.78;100.00
6853;BME280;3465;42.144;24.722;2022-12-18T08:17:24;145368.47;;;9.80;100.00
6853;BME280;3465;42.144;24.722;2022-12-18T08:19:49;145348.47;;;9.72;100.00
6853;BME280;3465;42.144;24.722;2022-12-18T08:22:14;145369.75;;;9.81;100.00
6853;BME280;3465;42.144;24.722;2022-12-18T08:24:40;145392.25;;;9.90;100.00
6853;BME280;3465;42.144;24.722;2022-12-18T08:27:05;145366.00;;;9.79;100.00
6853;BME280;3465;42.144;24.722;2022-12-18T08:29:30;145396.00;;;9.91;100.00
6853;BME280;3465;42.144;24.722;2022-12-18T08:31:57;145375.97;;;9.83;100.00
6853;BME280;3465;42.144;24.722;2022-12-18T08:34:22;145375.97;;;9.83;100.00
6853;BME280;3465;42.144;24.722;2022-12-18T08:36:51;145388.50;;;9.88;100.00
6853;BME280;3465;42.144;24.722;2022-12-18T08:39:16;145408.53;;;9.96;100.00
6853;BME280;3465;42.144;24.722;2022-12-18T08:41:41;145418.53;;;10.00;100.00
6853;BME280;3465;42.144;24.722;2022-12-18T08:44:07;145438.59;;;10.08;100.00
6853;BME280;3465;42.144;24.722;2022-12-18T08:46:51;145437.38;;;10.08;100.00
6853;BME280;3465;42.144;24.722;2022-12-18T08:49:17;145418.53;;;10.00;100.00
6853;BME280;3465;42.144;24.722;2022-12-18T08:51:42;145433.56;;;10.06;100.00
6853;BME280;3465;42.144;24.722;2022-12-18T08:54:11;145469.94;;;10.21;100.00
6853;BME280;3465;42.144;24.722;2022-12-18T08:56:37;145451.13;;;10.13;100.00
6853;BME280;3465;42.144;24.722;2022-12-18T08:59:03;145471.16;;;10.22;100.00
6853;BME280;3465;42.144;24.722;2022-12-18T09:01:29;145478.66;;;10.25;100.00
6853;BME280;3465;42.144;24.722;2022-12-18T09:03:55;145496.19;;;10.32;100.00
6853;BME280;3465;42.144;24.722;2022-12-18T09:06:21;145504.97;;;10.35;100.00
6853;BME280;3465;42.144;24.722;2022-12-18T09:08:47;145496.19;;;10.32;100.00
6853;BME280;3465;42.144;24.722;2022-12-18T09:11:20;145528.75;;;10.45;100.00
6853;BME280;3465;42.144;24.722;2022-12-18T09:13:46;145499.94;;;10.33;100.00
6853;BME280;3465;42.144;24.722;2022-12-18T09:16:12;145519.97;;;10.41;100.00
6853;BME280;3465;42.144;24.722;2022-12-18T09:18:37;145523.75;;;10.43;100.00
6853;BME280;3465;42.144;24.722;2022-12-18T09:21:11;145545.03;;;10.51;100.00
6853;BME280;3465;42.144;24.722;2022-12-18T09:23:36;145527.50;;;10.44;100.00
6853;BME280;3465;42.144;24.722;2022-12-18T09:26:02;145506.25;;;10.36;100.00
6853;BME280;3465;42.144;24.722;2022-12-18T09:28:27;145451.13;;;10.13;100.00
6853;BME280;3465;42.144;24.722;2022-12-18T09:30:53;145545.03;;;10.51;100.00
6853;BME280;3465;42.144;24.722;2022-12-18T09:33:19;145511.22;;;10.38;100.00
6853;BME280;3465;42.144;24.722;2022-12-18T09:35:45;145496.19;;;10.32;100.00
6853;BME280;3465;42.144;24.722;2022-12-18T09:38:16;145516.22;;;10.40;100.00
6853;BME280;3465;42.144;24.722;2022-12-18T09:40:44;145507.47;;;10.36;100.00
6853;BME280;3465;42.144;24.722;2022-12-18T09:43:18;145518.72;;;10.41;100.00
6853;BME280;3465;42.144;24.722;2022-12-18T09:45:49;145517.50;;;10.40;100.00
6853;BME280;3465;42.144;24.722;2022-12-18T09:48:26;145516.22;;;10.40;100.00
6853;BME280;3465;42.144;24.722;2022-12-18T09:51:00;145494.94;;;10.31;100.00
6853;BME280;3465;42.144;24.722;2022-12-18T09:53:31;145532.50;;;10.46;100.00
6853;BME280;3465;42.144;24.722;2022-12-18T09:56:00;145513.75;;;10.39;100.00
6853;BME280;3465;42.144;24.722;2022-12-18T09:58:31;145523.75;;;10.43;100.00
6853;BME280;3465;42.144;24.722;2022-12-18T10:00:59;145488.69;;;10.29;100.00
6853;BME280;3465;42.144;24.722;2022-12-18T10:03:24;145498.69;;;10.33;100.00
6853;BME280;3465;42.144;24.722;2022-12-18T10:06:13;145528.75;;;10.45;100.00
6853;BME280;3465;42.144;24.722;2022-12-18T10:09:01;145531.25;;;10.46;100.00
6853;BME280;3465;42.144;24.722;2022-12-18T10:11:43;145497.47;;;10.32;100.00
6853;BME280;3465;42.144;24.722;2022-12-18T10:17:03;145552.53;;;10.54;100.00
6853;BME280;3465;42.144;24.722;2022-12-18T10:19:40;145560.06;;;10.57;100.00
6853;BME280;3465;42.144;24.722;2022-12-18T10:22:39;145548.78;;;10.53;100.00
6853;BME280;3465;42.144;24.722;2022-12-18T10:25:24;145577.59;;;10.64;100.00
6853;BME280;3465;42.144;24.722;2022-12-18T10:28:00;145553.81;;;10.55;100.00
6853;BME280;3465;42.144;24.722;2022-12-18T10:30:29;145545.03;;;10.51;100.00
6853;BME280;3465;42.144;24.722;2022-12-18T10:33:00;145538.75;;;10.49;100.00
6853;BME280;3465;42.144;24.722;2022-12-18T10:35:26;145525.00;;;10.43;100.00
6853;BME280;3465;42.144;24.722;2022-12-18T10:40:49;145506.25;;;10.36;100.00
6853;BME280;3465;42.144;24.722;2022-12-18T10:43:20;145491.19;;;10.30;100.00
6853;BME280;3465;42.144;24.722;2022-12-18T10:51:03;145517.50;;;10.40;100.00
6853;BME280;3465;42.144;24.722;2022-12-18T10:53:31;145494.94;;;10.31;100.00
6853;BME280;3465;42.144;24.722;2022-12-18T10:56:02;145497.47;;;10.32;100.00
6853;BME280;3465;42.144;24.722;2022-12-18T11:01:17;145486.22;;;10.28;100.00
6853;BME280;3465;42.144;24.722;2022-12-18T11:06:16;145472.41;;;10.22;100.00
6853;BME280;3465;42.144;24.722;2022-12-18T11:08:56;145369.75;;;9.81;100.00
6853;BME280;3465;42.144;24.722;2022-12-18T11:11:24;145441.13;;;10.09;100.00
6853;BME280;3465;42.144;24.722;2022-12-18T11:14:14;145446.16;;;10.12;100.00
6853;BME280;3465;42.144;24.722;2022-12-18T11:16:46;145414.75;;;9.99;100.00
6853;BME280;3465;42.144;24.722;2022-12-18T11:21:50;145360.97;;;9.77;100.00
6853;BME280;3465;42.144;24.722;2022-12-18T11:24:32;145320.94;;;9.61;100.00
6853;BME280;3465;42.144;24.722;2022-12-18T11:27:17;145302.13;;;9.54;100.00
6853;BME280;3465;42.144;24.722;2022-12-18T11:29:43;145280.91;;;9.45;100.00
6853;BME280;3465;42.144;24.722;2022-12-18T11:34:46;145250.84;;;9.33;100.00
6853;BME280;3465;42.144;24.722;2022-12-18T11:37:15;145268.38;;;9.40;100.00
6853;BME280;3465;42.144;24.722;2022-12-18T11:40:06;145299.66;;;9.53;100.00
6853;BME280;3465;42.144;24.722;2022-12-18T11:42:40;145303.41;;;9.54;100.00
6853;BME280;3465;42.144;24.722;2022-12-18T11:50:13;145309.69;;;9.57;100.00
6853;BME280;3465;42.144;24.722;2022-12-18T11:52:40;145343.44;;;9.70;100.00
6853;BME280;3465;42.144;24.722;2022-12-18T11:55:43;145345.97;;;9.71;100.00
6853;BME280;3465;42.144;24.722;2022-12-18T12:02:03;145374.72;;;9.83;100.00
6853;BME280;3465;42.144;24.722;2022-12-18T12:09:49;145381.00;;;9.85;100.00
6853;BME280;3465;42.144;24.722;2022-12-18T12:20:40;145383.50;;;9.86;100.00
6853;BME280;3465;42.144;24.722;2022-12-18T12:34:26;145364.72;;;9.79;100.00
6853;BME280;3465;42.144;24.722;2022-12-18T12:39:30;145367.22;;;9.80;100.00
6853;BME280;3465;42.144;24.722;2022-12-18T12:41:58;145342.16;;;9.70;100.00
6853;BME280;3465;42.144;24.722;2022-12-18T12:44:46;145328.44;;;9.64;100.00
6853;BME280;3465;42.144;24.722;2022-12-18T12:47:36;145353.47;;;9.74;100.00
6853;BME280;3465;42.144;24.722;2022-12-18T12:50:11;145358.44;;;9.76;100.00
6853;BME280;3465;42.144;24.722;2022-12-18T12:52:43;145363.47;;;9.78;100.00
6853;BME280;3465;42.144;24.722;2022-12-18T12:55:18;145359.72;;;9.77;100.00
6853;BME280;3465;42.144;24.722;2022-12-18T13:00:19;145377.25;;;9.84;100.00
6853;BME280;3465;42.144;24.722;2022-12-18T13:05:23;145382.22;;;9.86;100.00
6853;BME280;3465;42.144;24.722;2022-12-18T13:08:22;145377.25;;;9.84;100.00
6853;BME280;3465;42.144;24.722;2022-12-18T13:10:48;145363.47;;;9.78;100.00
6853;BME280;3465;42.144;24.722;2022-12-18T13:13:14;145359.72;;;9.77;100.00
6853;BME280;3465;42.144;24.722;2022-12-18T13:15:48;145338.41;;;9.68;100.00
6853;BME280;3465;42.144;24.722;2022-12-18T13:18:27;145335.94;;;9.67;100.00
6853;BME280;3465;42.144;24.722;2022-12-18T13:34:17;145340.97;;;9.69;100.00
6853;BME280;3465;42.144;24.722;2022-12-18T13:36:42;145314.66;;;9.59;100.00
6853;BME280;3465;42.144;24.722;2022-12-18T13:39:21;145320.94;;;9.61;100.00
6853;BME280;3465;42.144;24.722;2022-12-18T13:42:38;145322.16;;;9.62;100.00
6853;BME280;3465;42.144;24.722;2022-12-18T13:44:58;145278.38;;;9.44;100.00
6853;BME280;3465;42.144;24.722;2022-12-18T13:47:43;145295.91;;;9.51;100.00
6853;BME280;3465;42.144;24.722;2022-12-18T13:50:18;145285.91;;;9.47;100.00
6853;BME280;3465;42.144;24.722;2022-12-18T13:52:45;145294.63;;;9.51;100.00
6853;BME280;3465;42.144;24.722;2022-12-18T13:55:18;145275.88;;;9.43;100.00
6853;BME280;3465;42.144;24.722;2022-12-18T13:57:44;145259.63;;;9.37;100.00
6853;BME280;3465;42.144;24.722;2022-12-18T14:02:48;145233.38;;;9.26;100.00
6853;BME280;3465;42.144;24.722;2022-12-18T14:05:31;145214.56;;;9.19;100.00
6853;BME280;3465;42.144;24.722;2022-12-18T14:08:12;145179.56;;;9.05;100.00
6853;BME280;3465;42.144;24.722;2022-12-18T14:10:44;145173.34;;;9.02;100.00
6853;BME280;3465;42.144;24.722;2022-12-18T14:13:16;145198.31;;;9.12;100.00
6853;BME280;3465;42.144;24.722;2022-12-18T14:15:47;145184.59;;;9.07;100.00
6853;BME280;3465;42.144;24.722;2022-12-18T14:20:49;145119.53;;;8.81;100.00
6853;BME280;3465;42.144;24.722;2022-12-18T14:23:44;145209.59;;;9.17;100.00
6853;BME280;3465;42.144;24.722;2022-12-18T14:26:27;145227.09;;;9.24;100.00
6853;BME280;3465;42.144;24.722;2022-12-18T14:28:58;145198.31;;;9.12;100.00
6853;BME280;3465;42.144;24.722;2022-12-18T14:31:27;145245.88;;;9.31;100.00
6853;BME280;3465;42.144;24.722;2022-12-18T14:33:53;145228.34;;;9.24;100.00
6853;BME280;3465;42.144;24.722;2022-12-18T14:36:24;145239.59;;;9.29;100.00
6853;BME280;3465;42.144;24.722;2022-12-18T14:38:57;145215.84;;;9.19;100.00
6853;BME280;3465;42.144;24.722;2022-12-18T14:41:24;145200.84;;;9.13;100.00
6853;BME280;3465;42.144;24.722;2022-12-18T14:43:52;145168.31;;;9.00;100.00
6853;BME280;3465;42.144;24.722;2022-12-18T14:46:37;145188.34;;;9.08;100.00
6853;BME280;3465;42.144;24.722;2022-12-18T14:49:24;145195.84;;;9.11;100.00
6853;BME280;3465;42.144;24.722;2022-12-18T14:51:53;145148.31;;;8.92;100.00
6853;BME280;3465;42.144;24.722;2022-12-18T14:54:20;145183.31;;;9.06;100.00
6853;BME280;3465;42.144;24.722;2022-12-18T14:56:49;145220.84;;;9.21;100.00
6853;BME280;3465;42.144;24.722;2022-12-18T14:59:19;145185.84;;;9.07;100.00
6853;BME280;3465;42.144;24.722;2022-12-18T15:01:54;145180.84;;;9.05;100.00
6853;BME280;3465;42.144;24.722;2022-12-18T15:04:28;145189.59;;;9.09;100.00